createdAt,value
2019-01-26T00:00:52.293Z,98278.38
2019-01-26T00:03:44.760Z,98273.27
2019-01-26T00:05:55.690Z,98273.27
2019-01-26T00:08:06.508Z,98282.98
2019-01-26T00:10:17.458Z,98280.78
2019-01-26T00:12:28.267Z,98277.45
2019-01-26T00:14:39.082Z,98274.98
2019-01-26T00:16:49.891Z,98274.55
2019-01-26T00:19:00.735Z,98277.93
2019-01-26T00:21:11.538Z,98265.95
2019-01-26T00:23:22.333Z,98257.39
2019-01-26T00:25:33.164Z,98267.22
2019-01-26T00:27:43.986Z,98258.22
2019-01-26T00:29:54.849Z,98254.16
2019-01-26T00:32:05.651Z,98254.16
2019-01-26T00:34:16.497Z,98261.08
2019-01-26T00:36:27.323Z,98256.85
2019-01-26T00:38:38.252Z,98253.02
2019-01-26T00:40:49.073Z,98253.81
2019-01-26T00:42:59.874Z,98254.75
2019-01-26T00:45:32.467Z,98255.15
2019-01-26T00:47:43.262Z,98256.51
2019-01-26T00:49:54.095Z,98253.13
2019-01-26T00:52:04.876Z,98253.58
2019-01-26T00:54:15.713Z,98248.90
2019-01-26T00:56:26.630Z,98252.73
2019-01-26T00:58:37.556Z,98244.59
2019-01-26T01:00:48.375Z,98241.23
2019-01-26T01:02:59.200Z,98232.30
2019-01-26T01:05:10.225Z,98228.91
2019-01-26T01:07:21.129Z,98221.64
2019-01-26T01:09:31.938Z,98220.74
2019-01-26T01:11:42.796Z,98214.91
2019-01-26T01:13:53.592Z,98218.31
2019-01-26T01:16:04.518Z,98216.63
2019-01-26T01:18:15.333Z,98206.42
2019-01-26T01:20:26.149Z,98197.86
2019-01-26T01:22:36.954Z,98194.37
2019-01-26T01:24:47.749Z,98198.55
2019-01-26T01:26:58.562Z,98194.70
2019-01-26T01:29:09.349Z,98198.60
2019-01-26T01:31:20.163Z,98198.59
2019-01-26T01:33:30.947Z,98196.92
2019-01-26T01:35:41.764Z,98206.46
2019-01-26T01:37:52.557Z,98214.62
2019-01-26T01:40:45.005Z,98218.11
2019-01-26T01:42:55.821Z,98221.85
2019-01-26T01:45:48.264Z,98223.17
2019-01-26T01:47:59.091Z,98223.27
2019-01-26T01:50:51.518Z,98219.09
2019-01-26T01:53:02.450Z,98220.77
2019-01-26T01:55:13.340Z,98219.79
2019-01-26T01:57:24.173Z,98213.00
2019-01-26T01:59:34.968Z,98205.93
2019-01-26T02:01:45.783Z,98197.44
2019-01-26T02:03:56.600Z,98188.50
2019-01-26T02:06:07.398Z,98195.31
2019-01-26T02:08:18.305Z,98197.44
2019-01-26T02:10:29.295Z,98196.16
2019-01-26T02:12:40.130Z,98197.83
2019-01-26T02:14:50.926Z,98185.50
2019-01-26T02:17:01.881Z,98179.61
2019-01-26T02:19:13.433Z,98171.47
2019-01-26T02:21:24.229Z,98169.30
2019-01-26T02:23:35.063Z,98157.02
2019-01-26T02:25:45.852Z,98165.87
2019-01-26T02:27:56.667Z,98171.41
2019-01-26T02:30:27.337Z,98168.08
2019-01-26T02:32:38.125Z,98165.02
2019-01-26T02:34:48.952Z,98166.73
2019-01-26T02:36:59.843Z,98173.57
2019-01-26T02:39:10.672Z,98173.53
2019-01-26T02:41:21.495Z,98167.23
2019-01-26T02:43:32.344Z,98162.47
2019-01-26T02:45:43.254Z,98163.25
2019-01-26T02:47:54.052Z,98162.33
2019-01-26T02:50:46.513Z,98165.32
2019-01-26T02:52:57.303Z,98161.05
2019-01-26T02:55:08.215Z,98154.75
2019-01-26T02:57:19.017Z,98150.93
2019-01-26T02:59:29.821Z,98154.47
2019-01-26T03:01:40.666Z,98149.06
2019-01-26T03:03:51.435Z,98142.60
2019-01-26T03:06:43.915Z,98145.53
2019-01-26T03:08:54.743Z,98145.44
2019-01-26T03:11:05.657Z,98135.61
2019-01-26T03:13:16.461Z,98140.16
2019-01-26T03:15:27.368Z,98133.50
2019-01-26T03:17:38.182Z,98136.50
2019-01-26T03:19:49.097Z,98133.00
2019-01-26T03:21:59.885Z,98129.11
2019-01-26T03:24:10.680Z,98126.16
2019-01-26T03:26:21.496Z,98112.11
2019-01-26T03:28:32.280Z,98103.23
2019-01-26T03:30:43.104Z,98107.86
2019-01-26T03:32:54.038Z,98108.28
2019-01-26T03:37:57.151Z,98105.64
2019-01-26T03:40:49.608Z,98103.02
2019-01-26T03:43:00.399Z,98096.98
2019-01-26T03:45:52.874Z,98102.95
2019-01-26T03:48:03.658Z,98099.12
2019-01-26T03:50:56.118Z,98098.58
2019-01-26T03:53:06.913Z,98091.69
2019-01-26T03:55:59.370Z,98098.52
2019-01-26T03:58:10.223Z,98090.74
2019-01-26T04:01:02.676Z,98096.34
2019-01-26T04:03:13.588Z,98097.51
2019-01-26T04:05:24.610Z,98093.23
2019-01-26T04:07:35.417Z,98099.16
2019-01-26T04:09:46.201Z,98095.22
2019-01-26T04:11:57.023Z,98092.11
2019-01-26T04:14:07.857Z,98083.05
2019-01-26T04:16:18.657Z,98084.77
2019-01-26T04:18:29.466Z,98080.03
2019-01-26T04:20:40.271Z,98080.87
2019-01-26T04:22:51.060Z,98079.20
2019-01-26T04:25:43.518Z,98075.27
2019-01-26T04:27:54.339Z,98070.58
2019-01-26T04:30:46.801Z,98069.64
2019-01-26T04:32:57.627Z,98070.51
2019-01-26T04:35:50.075Z,98060.17
2019-01-26T04:38:00.926Z,98058.00
2019-01-26T04:40:53.381Z,98064.70
2019-01-26T04:43:04.295Z,98065.91
2019-01-26T04:45:56.760Z,98057.81
2019-01-26T04:48:07.701Z,98055.58
2019-01-26T04:51:00.169Z,98055.95
2019-01-26T04:53:10.986Z,98061.91
2019-01-26T04:55:21.905Z,98063.19
2019-01-26T04:57:32.715Z,98069.90
2019-01-26T04:59:43.563Z,98068.21
2019-01-26T05:01:54.314Z,98078.59
2019-01-26T05:04:05.149Z,98074.69
2019-01-26T05:06:15.945Z,98076.39
2019-01-26T05:08:26.725Z,98078.06
2019-01-26T05:10:37.568Z,98076.70
2019-01-26T05:13:30.014Z,98077.91
2019-01-26T05:15:40.827Z,98076.06
2019-01-26T05:17:51.648Z,98068.71
2019-01-26T05:20:44.107Z,98069.40
2019-01-26T05:22:54.914Z,98066.72
2019-01-26T05:25:05.817Z,98071.49
2019-01-26T05:27:16.610Z,98065.93
2019-01-26T05:29:27.410Z,98067.55
2019-01-26T05:31:38.230Z,98070.02
2019-01-26T05:33:49.026Z,98063.53
2019-01-26T05:35:59.950Z,98066.88
2019-01-26T05:38:10.852Z,98057.47
2019-01-26T05:40:21.806Z,98057.09
2019-01-26T05:42:32.593Z,98054.06
2019-01-26T05:44:43.406Z,98051.00
2019-01-26T05:46:54.212Z,98040.77
2019-01-26T05:49:05.024Z,98039.92
2019-01-26T05:51:15.835Z,98041.59
2019-01-26T05:53:26.639Z,98036.09
2019-01-26T05:55:37.552Z,98039.48
2019-01-26T05:57:48.377Z,98042.80
2019-01-26T05:59:59.150Z,98044.89
2019-01-26T06:02:10.068Z,98047.84
2019-01-26T06:04:20.875Z,98050.02
2019-01-26T06:06:31.694Z,98054.62
2019-01-26T06:08:42.494Z,98060.56
2019-01-26T06:10:53.336Z,98064.77
2019-01-26T06:13:04.155Z,98059.57
2019-01-26T06:15:15.060Z,98061.23
2019-01-26T06:17:25.926Z,98059.64
2019-01-26T06:19:36.681Z,98061.27
2019-01-26T06:21:47.510Z,98061.62
2019-01-26T06:23:58.362Z,98060.33
2019-01-26T06:26:09.167Z,98055.20
2019-01-26T06:28:19.977Z,98053.87
2019-01-26T06:30:30.800Z,98061.49
2019-01-26T06:32:41.613Z,98061.47
2019-01-26T06:34:52.400Z,98065.39
2019-01-26T06:37:03.226Z,98066.20
2019-01-26T06:39:14.013Z,98068.23
2019-01-26T06:41:24.826Z,98074.53
2019-01-26T06:43:35.652Z,98069.75
2019-01-26T06:46:06.325Z,98072.53
2019-01-26T06:48:17.220Z,98072.53
2019-01-26T06:53:00.400Z,98069.39
2019-01-26T06:55:11.307Z,98087.37
2019-01-26T06:59:54.475Z,98092.00
2019-01-26T07:02:05.281Z,98085.96
2019-01-26T07:04:36.083Z,98087.61
2019-01-26T07:09:19.285Z,98070.81
2019-01-26T07:11:30.100Z,98072.09
2019-01-26T07:13:40.914Z,98067.44
2019-01-26T07:18:24.178Z,98069.23
2019-01-26T07:20:35.105Z,98073.12
2019-01-26T07:22:45.971Z,98070.63
2019-01-26T07:24:56.798Z,98074.47
2019-01-26T07:27:07.609Z,98076.22
2019-01-26T07:29:18.542Z,98074.19
2019-01-26T07:31:29.334Z,98072.58
2019-01-26T07:33:40.176Z,98071.69
2019-01-26T07:35:50.984Z,98067.45
2019-01-26T07:38:01.785Z,98075.56
2019-01-26T07:40:34.505Z,98076.91
2019-01-26T07:42:45.289Z,98076.96
2019-01-26T07:44:56.146Z,98077.80
2019-01-26T07:47:06.935Z,98078.19
2019-01-26T07:49:17.769Z,98072.16
2019-01-26T07:51:28.715Z,98074.25
2019-01-26T07:53:39.522Z,98071.63
2019-01-26T07:55:50.349Z,98070.27
2019-01-26T07:58:01.172Z,98072.37
2019-01-26T08:00:33.778Z,98069.04
2019-01-26T08:02:44.584Z,98069.42
2019-01-26T08:04:55.408Z,98064.30
2019-01-26T08:07:06.239Z,98059.56
2019-01-26T08:09:17.031Z,98055.19
2019-01-26T08:11:27.870Z,98054.65
2019-01-26T08:13:38.736Z,98057.95
2019-01-26T08:15:49.696Z,98059.21
2019-01-26T08:18:00.586Z,98056.11
2019-01-26T08:20:53.081Z,98051.75
2019-01-26T08:23:03.968Z,98049.91
2019-01-26T08:25:56.457Z,98052.02
2019-01-26T08:28:07.242Z,98049.81
2019-01-26T08:30:59.743Z,98048.77
2019-01-26T08:33:10.551Z,98047.39
2019-01-26T08:35:21.444Z,98052.42
2019-01-26T08:37:32.265Z,98048.58
2019-01-26T08:39:43.065Z,98056.18
2019-01-26T08:41:53.894Z,98059.10
2019-01-26T08:44:04.720Z,98052.18
2019-01-26T08:46:15.546Z,98051.41
2019-01-26T08:48:31.176Z,98050.42
2019-01-26T08:50:39.072Z,98051.70
2019-01-26T08:52:49.926Z,98051.48
2019-01-26T08:55:00.781Z,98047.89
2019-01-26T08:57:11.565Z,98049.17
2019-01-26T08:59:22.393Z,98049.53
2019-01-26T09:01:33.188Z,98045.42
2019-01-26T09:08:24.814Z,98058.92
2019-01-26T09:10:35.640Z,98056.36
2019-01-26T09:12:46.571Z,98057.16
2019-01-26T09:14:57.392Z,98062.68
2019-01-26T09:17:08.224Z,98061.30
2019-01-26T09:19:19.122Z,98064.53
2019-01-26T09:21:30.095Z,98059.27
2019-01-26T09:23:40.917Z,98053.72
2019-01-26T09:25:51.728Z,98056.28
2019-01-26T09:28:03.257Z,98047.20
2019-01-26T09:30:55.715Z,98047.55
2019-01-26T09:33:06.558Z,98041.94
2019-01-26T09:35:17.362Z,98043.50
2019-01-26T09:37:28.262Z,98042.05
2019-01-26T09:39:39.088Z,98039.10
2019-01-26T09:41:49.910Z,98041.66
2019-01-26T09:44:00.840Z,98043.27
2019-01-26T09:46:11.739Z,98036.30
2019-01-26T09:49:04.525Z,98034.98
2019-01-26T09:51:35.553Z,98037.55
2019-01-26T09:53:48.805Z,98032.89
2019-01-26T09:55:59.922Z,98028.20
2019-01-26T09:58:11.308Z,98037.64
2019-01-26T10:01:03.809Z,98034.42
2019-01-26T10:03:14.714Z,98037.44
2019-01-26T10:05:25.627Z,98041.51
2019-01-26T10:07:36.541Z,98039.67
2019-01-26T10:09:47.375Z,98040.84
2019-01-26T10:11:58.225Z,98039.28
2019-01-26T10:14:09.082Z,98038.80
2019-01-26T10:16:20.190Z,98040.75
2019-01-26T10:18:31.018Z,98036.41
2019-01-26T10:21:23.485Z,98036.69
2019-01-26T10:23:34.281Z,98040.92
2019-01-26T10:25:48.791Z,98036.51
2019-01-26T10:27:58.013Z,98046.33
2019-01-26T10:30:50.468Z,98043.66
2019-01-26T10:33:01.298Z,98046.95
2019-01-26T10:35:12.197Z,98039.14
2019-01-26T10:39:45.554Z,98035.27
2019-01-26T10:46:40.917Z,98023.62
2019-01-26T10:48:51.710Z,98020.75
2019-01-26T10:51:02.768Z,98018.48
2019-01-26T10:53:13.593Z,98017.05
2019-01-26T10:55:24.396Z,98012.84
2019-01-26T10:57:35.229Z,98013.64
2019-01-26T10:59:46.042Z,98007.44
2019-01-26T11:01:56.904Z,98004.67
2019-01-26T11:04:07.759Z,97999.03
2019-01-26T11:06:18.718Z,97995.94
2019-01-26T11:08:29.564Z,97985.91
2019-01-26T11:10:40.391Z,97977.05
2019-01-26T11:12:51.311Z,97980.80
2019-01-26T11:15:43.798Z,97969.19
2019-01-26T11:17:54.617Z,97969.69
2019-01-26T11:20:25.297Z,97961.64
2019-01-26T11:22:36.149Z,97955.33
2019-01-26T11:24:46.939Z,97957.32
2019-01-26T11:26:57.751Z,97948.75
2019-01-26T11:29:08.580Z,97949.19
2019-01-26T11:31:19.499Z,97951.75
2019-01-26T11:33:30.327Z,97950.41
2019-01-26T11:35:41.154Z,97950.70
2019-01-26T11:37:51.963Z,97943.05
2019-01-26T11:40:44.456Z,97950.57
2019-01-26T11:42:55.269Z,97945.41
2019-01-26T11:45:47.743Z,97945.04
2019-01-26T11:52:36.132Z,97940.94
2019-01-26T11:59:24.670Z,97918.39
2019-01-26T12:01:55.351Z,97910.90
2019-01-26T12:08:47.413Z,97905.66
2019-01-26T12:10:58.226Z,97901.39
2019-01-26T12:13:09.078Z,97896.70
2019-01-26T12:15:19.971Z,97885.73
2019-01-26T12:17:30.780Z,97891.59
2019-01-26T12:19:41.623Z,97888.61
2019-01-26T12:21:52.447Z,97882.11
2019-01-26T12:24:03.342Z,97881.87
2019-01-26T12:26:14.214Z,97878.38
2019-01-26T12:28:25.032Z,97876.08
2019-01-26T12:30:35.950Z,97870.88
2019-01-26T12:32:46.752Z,97868.89
2019-01-26T12:34:57.605Z,97866.69
2019-01-26T12:37:08.403Z,97859.55
2019-01-26T12:39:19.205Z,97868.39
2019-01-26T12:41:30.049Z,97865.66
2019-01-26T12:43:40.941Z,97864.59
2019-01-26T12:46:11.642Z,97862.52
2019-01-26T12:48:22.445Z,97872.83
2019-01-26T12:50:33.271Z,97862.70
2019-01-26T12:52:44.092Z,97862.01
2019-01-26T12:54:55.089Z,97858.14
2019-01-26T12:57:06.024Z,97849.72
2019-01-26T12:59:16.986Z,97856.80
2019-01-26T13:01:27.875Z,97858.63
2019-01-26T13:03:38.679Z,97854.31
2019-01-26T13:08:08.226Z,97849.86
2019-01-26T13:10:58.758Z,97854.18
2019-01-26T13:13:09.722Z,97845.75
2019-01-26T13:15:20.591Z,97844.52
2019-01-26T13:17:31.447Z,97845.34
2019-01-26T13:19:42.237Z,97847.50
2019-01-26T13:21:53.075Z,97838.53
2019-01-26T13:24:03.985Z,97837.25
2019-01-26T13:26:14.774Z,97829.16
2019-01-26T13:28:25.636Z,97838.08
2019-01-26T13:30:36.436Z,97831.51
2019-01-26T13:35:26.017Z,97833.17
2019-01-26T13:37:36.874Z,97826.90
2019-01-26T13:39:47.681Z,97828.19
2019-01-26T13:41:58.484Z,97824.16
2019-01-26T13:44:09.321Z,97822.95
2019-01-26T13:46:20.236Z,97821.91
2019-01-26T13:48:31.078Z,97823.97
2019-01-26T13:50:41.995Z,97817.12
2019-01-26T13:52:52.842Z,97815.92
2019-01-26T13:55:45.283Z,97814.85
2019-01-26T13:57:56.121Z,97802.66
2019-01-26T14:00:48.610Z,97804.41
2019-01-26T14:02:59.483Z,97797.59
2019-01-26T14:05:10.356Z,97800.73
2019-01-26T14:07:42.947Z,97794.20
2019-01-26T14:09:53.785Z,97793.06
2019-01-26T14:12:04.601Z,97788.44
2019-01-26T14:14:15.430Z,97791.85
2019-01-26T14:16:46.177Z,97784.69
2019-01-26T14:18:57.015Z,97784.69
2019-01-26T14:21:07.836Z,97786.66
2019-01-26T14:23:18.636Z,97786.95
2019-01-26T14:25:29.478Z,97789.80
2019-01-26T14:27:40.382Z,97789.89
2019-01-26T14:29:51.230Z,97783.77
2019-01-26T14:32:02.138Z,97781.25
2019-01-26T14:34:13.046Z,97781.84
2019-01-26T14:36:23.868Z,97778.81
2019-01-26T14:38:34.685Z,97778.89
2019-01-26T14:40:45.565Z,97776.18
2019-01-26T14:42:56.367Z,97773.74
2019-01-26T14:45:48.861Z,97776.78
2019-01-26T14:47:59.671Z,97774.11
2019-01-26T14:50:52.142Z,97775.95
2019-01-26T14:53:03.152Z,97766.70
2019-01-26T14:55:55.629Z,97762.89
2019-01-26T14:58:06.575Z,97769.10
2019-01-26T15:00:59.326Z,97758.57
2019-01-26T15:03:10.165Z,97761.60
2019-01-26T15:06:02.654Z,97757.23
2019-01-26T15:08:13.499Z,97757.23
2019-01-26T15:10:24.425Z,97749.66
2019-01-26T15:12:35.315Z,97747.55
2019-01-26T15:14:46.262Z,97744.28
2019-01-26T15:16:57.090Z,97743.91
2019-01-26T15:19:08.019Z,97747.69
2019-01-26T15:21:18.829Z,97747.55
2019-01-26T15:23:29.781Z,97744.08
2019-01-26T15:25:40.738Z,97747.09
2019-01-26T15:27:51.608Z,97738.24
2019-01-26T15:30:44.050Z,97743.91
2019-01-26T15:32:55.080Z,97746.16
2019-01-26T15:35:05.977Z,97737.75
2019-01-26T15:37:16.845Z,97735.77
2019-01-26T15:39:27.656Z,97737.05
2019-01-26T15:41:38.487Z,97732.05
2019-01-26T15:43:49.381Z,97736.37
2019-01-26T15:46:00.284Z,97730.07
2019-01-26T15:48:11.209Z,97726.61
2019-01-26T15:50:22.014Z,97728.03
2019-01-26T15:52:32.847Z,97722.52
2019-01-26T15:54:43.657Z,97723.80
2019-01-26T15:56:54.471Z,97723.40
2019-01-26T15:59:05.289Z,97721.42
2019-01-26T16:01:16.115Z,97715.99
2019-01-26T16:03:27.172Z,97716.08
2019-01-26T16:05:38.057Z,97714.02
2019-01-26T16:07:49.092Z,97704.45
2019-01-26T16:12:17.426Z,97699.25
2019-01-26T16:14:28.267Z,97696.04
2019-01-26T16:16:39.069Z,97699.44
2019-01-26T16:18:49.923Z,97703.06
2019-01-26T16:21:00.858Z,97705.19
2019-01-26T16:23:11.775Z,97702.61
2019-01-26T16:25:22.739Z,97697.70
2019-01-26T16:27:33.599Z,97697.78
2019-01-26T16:29:44.467Z,97701.73
2019-01-26T16:31:55.278Z,97701.27
2019-01-26T16:34:06.230Z,97698.38
2019-01-26T16:36:17.109Z,97697.86
2019-01-26T16:38:27.991Z,97695.98
2019-01-26T16:40:39.078Z,97694.89
2019-01-26T16:42:49.959Z,97688.22
2019-01-26T16:45:00.803Z,97691.94
2019-01-26T16:47:11.632Z,97692.40
2019-01-26T16:49:22.435Z,97686.02
2019-01-26T16:51:33.445Z,97676.18
2019-01-26T16:53:44.244Z,97679.58
2019-01-26T16:55:55.083Z,97677.78
2019-01-26T16:58:06.100Z,97666.71
2019-01-26T17:00:37.999Z,97664.00
2019-01-26T17:02:48.940Z,97662.80
2019-01-26T17:04:59.783Z,97661.28
2019-01-26T17:07:10.646Z,97656.19
2019-01-26T17:09:21.467Z,97653.56
2019-01-26T17:11:32.337Z,97647.49
2019-01-26T17:13:43.168Z,97649.09
2019-01-26T17:15:53.977Z,97645.47
2019-01-26T17:18:05.145Z,97638.66
2019-01-26T17:20:36.866Z,97637.89
2019-01-26T17:22:47.707Z,97623.87
2019-01-26T17:24:58.593Z,97628.65
2019-01-26T17:27:09.423Z,97627.12
2019-01-26T17:29:20.258Z,97621.90
2019-01-26T17:31:31.094Z,97614.77
2019-01-26T17:33:41.909Z,97610.86
2019-01-26T17:35:52.709Z,97610.31
2019-01-26T17:38:45.211Z,97609.94
2019-01-26T17:40:56.017Z,97606.54
2019-01-26T17:43:06.851Z,97608.66
2019-01-26T17:45:59.298Z,97610.55
2019-01-26T17:48:10.130Z,97605.16
2019-01-26T17:51:02.581Z,97606.73
2019-01-26T17:57:47.820Z,97599.61
2019-01-26T17:59:58.659Z,97593.64
2019-01-26T18:02:09.678Z,97593.19
2019-01-26T18:04:20.522Z,97590.55
2019-01-26T18:06:31.429Z,97589.72
2019-01-26T18:08:42.380Z,97589.12
2019-01-26T18:10:53.303Z,97592.90
2019-01-26T18:13:04.341Z,97589.18
2019-01-26T18:15:36.940Z,97580.12
2019-01-26T18:17:47.764Z,97583.66
2019-01-26T18:19:58.689Z,97572.08
2019-01-26T18:22:09.575Z,97582.75
2019-01-26T18:26:37.474Z,97579.03
2019-01-26T18:28:48.402Z,97579.12
2019-01-26T18:33:16.169Z,97581.00
2019-01-26T18:35:27.218Z,97573.11
2019-01-26T18:37:38.140Z,97570.25
2019-01-26T18:39:49.025Z,97568.83
2019-01-26T18:41:59.880Z,97568.42
2019-01-26T18:44:10.707Z,97569.70
2019-01-26T18:46:21.570Z,97562.63
2019-01-26T18:48:32.389Z,97565.84
2019-01-26T18:51:05.040Z,97565.70
2019-01-26T18:53:15.825Z,97557.07
2019-01-26T18:58:25.262Z,97551.19
2019-01-26T19:01:17.734Z,97551.12
2019-01-26T19:04:10.189Z,97540.43
2019-01-26T19:06:21.179Z,97543.00
2019-01-26T19:08:32.019Z,97527.80
2019-01-26T19:10:42.957Z,97529.63
2019-01-26T19:15:35.723Z,97517.96
2019-01-26T19:17:46.672Z,97515.48
2019-01-26T19:19:57.482Z,97511.22
2019-01-26T19:22:08.521Z,97518.02
2019-01-26T19:24:19.336Z,97514.31
2019-01-26T19:26:30.187Z,97512.66
2019-01-26T19:28:41.303Z,97502.41
2019-01-26T19:30:52.084Z,97500.53
2019-01-26T19:33:03.101Z,97498.41
2019-01-26T19:35:55.552Z,97499.79
2019-01-26T19:38:06.405Z,97489.55
2019-01-26T19:40:58.851Z,97495.02
2019-01-26T19:43:09.779Z,97484.67
2019-01-26T19:46:02.242Z,97480.41
2019-01-26T19:48:13.145Z,97478.15
2019-01-26T19:51:09.923Z,97483.38
2019-01-26T19:53:18.376Z,97478.66
2019-01-26T19:55:29.191Z,97480.35
2019-01-26T19:57:40.111Z,97473.92
2019-01-26T19:59:50.954Z,97476.49
2019-01-26T20:02:01.888Z,97463.48
2019-01-26T20:04:12.714Z,97460.45
2019-01-26T20:06:23.645Z,97449.25
2019-01-26T20:08:34.484Z,97443.42
2019-01-26T20:10:52.759Z,97435.70
2019-01-26T20:13:03.847Z,97426.70
2019-01-26T20:15:34.515Z,97426.84
2019-01-26T20:18:26.998Z,97426.84
2019-01-26T20:23:36.043Z,97416.55
2019-01-26T20:25:46.862Z,97408.92
2019-01-26T20:27:57.819Z,97411.95
2019-01-26T20:30:50.316Z,97403.16
2019-01-26T20:33:01.239Z,97398.70
2019-01-26T20:35:12.234Z,97405.90
2019-01-26T20:37:23.042Z,97407.50
2019-01-26T20:39:33.854Z,97404.98
2019-01-26T20:41:44.702Z,97402.55
2019-01-26T20:43:55.526Z,97391.73
2019-01-26T20:46:06.385Z,97384.02
2019-01-26T20:48:17.400Z,97377.30
2019-01-26T20:50:28.284Z,97371.75
2019-01-26T20:52:39.207Z,97371.91
2019-01-26T20:54:50.072Z,97363.83
2019-01-26T20:57:00.897Z,97355.58
2019-01-26T20:59:11.824Z,97347.86
2019-01-26T21:01:22.658Z,97348.52
2019-01-26T21:03:33.563Z,97341.93
2019-01-26T21:08:00.887Z,97338.04
2019-01-26T21:10:53.372Z,97329.70
2019-01-26T21:13:17.919Z,97319.78
2019-01-26T21:15:28.945Z,97312.00
2019-01-26T21:17:39.801Z,97315.09
2019-01-26T21:19:50.724Z,97298.93
2019-01-26T21:22:01.567Z,97290.45
2019-01-26T21:24:12.402Z,97297.19
2019-01-26T21:26:23.331Z,97292.20
2019-01-26T21:28:34.257Z,97287.36
2019-01-26T21:30:45.081Z,97277.53
2019-01-26T21:32:56.022Z,97276.00
2019-01-26T21:35:48.498Z,97261.48
2019-01-26T21:37:59.364Z,97252.84
2019-01-26T21:40:51.800Z,97260.50
2019-01-26T21:43:02.729Z,97256.95
2019-01-26T21:45:55.193Z,97242.09
2019-01-26T21:48:06.111Z,97236.13
2019-01-26T21:50:58.552Z,97225.02
2019-01-26T21:53:09.499Z,97229.81
2019-01-26T21:55:20.422Z,97223.11
2019-01-26T21:57:31.220Z,97210.98
2019-01-26T21:59:42.046Z,97204.55
2019-01-26T22:01:52.964Z,97213.95
2019-01-26T22:04:03.805Z,97206.75
2019-01-26T22:06:14.703Z,97207.72
2019-01-26T22:08:25.551Z,97202.02
2019-01-26T22:10:36.357Z,97196.20
2019-01-26T22:12:47.382Z,97201.66
2019-01-26T22:14:58.224Z,97198.45
2019-01-26T22:17:09.033Z,97193.77
2019-01-26T22:19:21.911Z,97189.37
2019-01-26T22:21:32.768Z,97186.94
2019-01-26T22:24:03.466Z,97186.97
2019-01-26T22:26:14.273Z,97189.23
2019-01-26T22:28:25.074Z,97187.79
2019-01-26T22:35:38.842Z,97182.90
2019-01-26T22:37:49.841Z,97183.47
2019-01-26T22:40:00.663Z,97176.93
2019-01-26T22:42:11.452Z,97170.03
2019-01-26T22:44:22.267Z,97176.83
2019-01-26T22:46:33.180Z,97166.94
2019-01-26T22:48:44.002Z,97165.55
2019-01-26T22:50:54.832Z,97160.50
2019-01-26T22:53:05.669Z,97156.91
2019-01-26T22:55:58.218Z,97159.28
2019-01-26T22:58:09.137Z,97163.14
2019-01-26T23:01:00.748Z,97132.56
2019-01-26T23:03:11.564Z,97128.50
2019-01-26T23:06:04.022Z,97124.70
2019-01-26T23:08:56.478Z,97119.30
2019-01-26T23:11:47.033Z,97120.65
2019-01-26T23:14:39.541Z,97116.89
2019-01-26T23:17:32.001Z,97109.34
2019-01-26T23:20:24.483Z,97101.52
2019-01-26T23:23:15.019Z,97100.39
2019-01-26T23:26:05.596Z,97089.08
2019-01-26T23:28:58.053Z,97093.11
2019-01-26T23:31:28.750Z,97084.20
2019-01-26T23:33:39.764Z,97082.52
2019-01-26T23:35:50.585Z,97085.02
2019-01-26T23:38:01.424Z,97075.56
2019-01-26T23:40:53.866Z,97079.16
2019-01-26T23:43:04.684Z,97087.77
2019-01-26T23:45:15.595Z,97074.34
2019-01-26T23:47:26.434Z,97062.23
2019-01-26T23:49:37.237Z,97058.53
2019-01-26T23:51:48.102Z,97056.42
2019-01-26T23:53:58.922Z,97057.41
2019-01-26T23:56:09.753Z,97050.69
2019-01-26T23:58:20.569Z,97040.50
